Time;durP1;ratioP1;P1;durP2;ratioP2;P2;SDS_P1;SDS_P2;PMS_P1;PMS_P2;Temp;Humidity;BMP_temperature;BMP_pressure;BME280_temperature;BME280_humidity;BME280_pressure;Samples;Min_cycle;Max_cycle;Signal;HPM_P1;HPM_P2
2024/01/07 00:02:00;;;;;;;12.17;10.10;;;2.50;99.90;;;;;;5050640;28;20205;-79
2024/01/07 00:04:27;;;;;;;14.60;10.50;;;2.40;99.90;;;;;;5055101;28;20229;-80
2024/01/07 00:06:54;;;;;;;12.53;10.33;;;2.40;99.90;;;;;;5055126;28;20197;-81
2024/01/07 00:09:22;;;;;;;12.17;9.80;;;2.40;99.90;;;;;;5055831;28;20285;-80
2024/01/07 00:11:49;;;;;;;11.70;9.47;;;2.30;99.90;;;;;;5058289;28;20200;-80
2024/01/07 00:14:16;;;;;;;13.40;10.33;;;2.30;99.90;;;;;;5050017;28;20209;-80
2024/01/07 00:16:43;;;;;;;12.47;10.43;;;2.30;99.90;;;;;;5050443;28;20241;-80
2024/01/07 00:19:10;;;;;;;13.80;10.07;;;2.30;99.90;;;;;;5050125;28;20199;-80
2024/01/07 00:21:37;;;;;;;12.80;10.13;;;2.30;99.90;;;;;;5055556;28;20198;-81
2024/01/07 00:24:04;;;;;;;11.53;9.93;;;2.40;99.90;;;;;;5049683;28;20221;-80
2024/01/07 00:26:32;;;;;;;12.40;9.97;;;2.40;99.90;;;;;;5052051;28;20198;-81
2024/01/07 00:29:00;;;;;;;12.17;9.90;;;2.40;99.90;;;;;;5052285;28;20200;-81
2024/01/07 00:31:27;;;;;;;11.77;9.80;;;2.40;99.90;;;;;;5045846;28;20281;-80
2024/01/07 00:33:53;;;;;;;13.77;9.50;;;2.50;99.90;;;;;;5044554;28;20289;-81
2024/01/07 00:36:20;;;;;;;12.07;10.07;;;2.40;99.90;;;;;;5054492;28;20814;-80
2024/01/07 00:38:47;;;;;;;11.43;9.83;;;2.40;99.90;;;;;;5056554;28;20234;-80
2024/01/07 00:41:14;;;;;;;12.53;9.90;;;2.40;99.90;;;;;;5051900;28;20736;-80
2024/01/07 00:43:42;;;;;;;13.23;10.23;;;2.40;99.90;;;;;;5053151;28;20224;-81
2024/01/07 00:46:08;;;;;;;12.17;9.80;;;2.40;99.90;;;;;;5050898;28;20198;-80
2024/01/07 00:48:35;;;;;;;12.37;9.60;;;2.40;99.90;;;;;;5054833;28;20198;-80
2024/01/07 00:51:02;;;;;;;11.80;9.57;;;2.40;99.90;;;;;;5049690;28;20202;-80
2024/01/07 00:53:29;;;;;;;12.07;9.60;;;2.40;99.90;;;;;;5049759;28;20198;-80
2024/01/07 00:55:55;;;;;;;10.60;9.30;;;2.50;99.90;;;;;;5053412;28;20212;-80
2024/01/07 00:58:22;;;;;;;10.43;9.17;;;2.40;99.90;;;;;;5051784;28;20205;-80
2024/01/07 01:00:50;;;;;;;11.67;10.10;;;2.40;99.90;;;;;;5049754;28;20196;-80
2024/01/07 01:03:17;;;;;;;11.53;9.80;;;2.40;99.90;;;;;;5052177;28;20771;-81
2024/01/07 01:05:44;;;;;;;12.97;10.30;;;2.40;99.90;;;;;;5056227;28;20214;-81
2024/01/07 01:08:11;;;;;;;11.03;9.83;;;2.40;99.90;;;;;;5054631;28;20190;-80
2024/01/07 01:10:37;;;;;;;10.63;9.27;;;2.40;99.90;;;;;;5059491;28;20650;-80
2024/01/07 01:13:04;;;;;;;11.13;9.67;;;2.50;99.90;;;;;;5058094;28;20196;-80
2024/01/07 01:15:31;;;;;;;11.53;9.70;;;2.40;99.90;;;;;;5057798;28;20291;-80
2024/01/07 01:17:59;;;;;;;10.43;8.97;;;2.30;99.90;;;;;;5064130;28;20198;-80
2024/01/07 01:20:26;;;;;;;12.20;9.20;;;2.30;99.90;;;;;;5056492;28;20542;-81
2024/01/07 01:22:53;;;;;;;11.03;9.20;;;2.20;99.90;;;;;;5056906;28;20650;-82
2024/01/07 01:25:20;;;;;;;9.80;8.60;;;2.30;99.90;;;;;;5055579;28;20211;-81
2024/01/07 01:27:47;;;;;;;11.23;9.43;;;2.40;99.90;;;;;;5054244;28;20200;-80
2024/01/07 01:30:14;;;;;;;10.87;9.23;;;2.40;99.90;;;;;;5056009;28;20198;-80
2024/01/07 01:32:41;;;;;;;11.47;9.27;;;2.40;99.90;;;;;;5062863;28;20243;-82
2024/01/07 01:35:10;;;;;;;11.23;9.23;;;2.30;99.90;;;;;;5058146;28;20201;-81
2024/01/07 01:37:36;;;;;;;10.73;9.03;;;2.40;99.90;;;;;;5059476;28;20206;-82
2024/01/07 01:40:04;;;;;;;9.87;8.30;;;2.50;99.90;;;;;;5052540;28;20197;-81
2024/01/07 01:42:31;;;;;;;10.43;8.80;;;2.60;99.90;;;;;;5055573;28;20651;-79
2024/01/07 01:45:01;;;;;;;9.07;8.13;;;2.40;99.90;;;;;;5051916;28;20987;-79
2024/01/07 01:47:28;;;;;;;10.00;8.90;;;2.40;99.90;;;;;;5061021;28;20193;-81
2024/01/07 01:49:55;;;;;;;9.47;8.13;;;2.40;99.90;;;;;;5056892;28;20201;-79
2024/01/07 01:52:23;;;;;;;9.60;8.03;;;2.40;99.90;;;;;;5066961;28;20197;-78
2024/01/07 01:54:50;;;;;;;10.43;8.43;;;2.40;99.90;;;;;;5057248;28;20202;-80
2024/01/07 01:57:22;;;;;;;10.37;8.27;;;2.30;99.90;;;;;;5056751;28;20229;-80
2024/01/07 01:59:49;;;;;;;9.23;8.10;;;2.20;99.90;;;;;;5052339;28;20651;-81
2024/01/07 02:02:16;;;;;;;9.07;8.10;;;2.30;99.90;;;;;;5064149;28;20197;-80
2024/01/07 02:04:43;;;;;;;8.97;7.90;;;2.30;99.90;;;;;;5057571;28;20231;-81
2024/01/07 02:07:10;;;;;;;8.53;7.53;;;2.30;99.90;;;;;;5049904;28;20201;-80
2024/01/07 02:09:39;;;;;;;8.47;7.30;;;2.30;99.90;;;;;;5056103;28;20202;-80
2024/01/07 02:12:11;;;;;;;8.67;7.77;;;2.30;99.90;;;;;;5059377;28;20573;-80
2024/01/07 02:14:38;;;;;;;9.40;7.87;;;2.20;99.90;;;;;;5060073;28;20744;-81
2024/01/07 02:17:05;;;;;;;8.77;7.87;;;2.20;99.90;;;;;;5057422;28;20201;-81
2024/01/07 02:19:32;;;;;;;8.30;7.50;;;2.30;99.90;;;;;;5052773;28;20209;-80
2024/01/07 02:21:58;;;;;;;8.27;7.40;;;2.30;99.90;;;;;;5059157;28;20196;-81
2024/01/07 02:24:26;;;;;;;8.17;7.37;;;2.40;99.90;;;;;;5058081;28;20590;-81
2024/01/07 02:26:53;;;;;;;8.73;7.23;;;2.50;99.90;;;;;;5056893;28;20198;-81
2024/01/07 02:29:20;;;;;;;8.33;7.43;;;2.30;99.90;;;;;;5058040;28;20198;-81
2024/01/07 02:31:47;;;;;;;8.20;7.23;;;2.40;99.90;;;;;;5065508;28;20208;-81
2024/01/07 02:34:13;;;;;;;8.80;7.90;;;2.30;99.90;;;;;;5060530;28;20209;-81
2024/01/07 02:36:40;;;;;;;8.40;7.50;;;2.20;99.90;;;;;;5057127;28;20202;-81
2024/01/07 02:39:07;;;;;;;7.97;7.17;;;2.10;99.90;;;;;;5054764;28;20202;-80
2024/01/07 02:41:35;;;;;;;8.53;7.63;;;2.10;99.90;;;;;;5054742;28;20564;-81
2024/01/07 02:44:02;;;;;;;8.77;7.67;;;2.20;99.90;;;;;;5052972;28;20213;-81
2024/01/07 02:46:28;;;;;;;8.27;7.33;;;2.10;99.90;;;;;;5056326;28;20197;-81
2024/01/07 02:48:55;;;;;;;8.50;7.57;;;2.20;99.90;;;;;;5055998;28;20208;-81
2024/01/07 02:51:22;;;;;;;8.90;7.30;;;2.20;99.90;;;;;;5057528;28;20212;-81
2024/01/07 02:53:48;;;;;;;8.77;7.73;;;2.20;99.90;;;;;;5060608;28;20288;-81
2024/01/07 02:56:15;;;;;;;8.10;7.30;;;2.30;99.90;;;;;;5054090;28;20859;-81
2024/01/07 02:58:43;;;;;;;7.37;6.53;;;2.30;99.90;;;;;;5058441;28;20204;-81
2024/01/07 03:01:10;;;;;;;7.67;6.87;;;2.40;99.90;;;;;;5057592;28;20201;-81
2024/01/07 03:03:37;;;;;;;7.90;7.07;;;2.30;99.90;;;;;;5058991;28;20202;-81
2024/01/07 03:06:04;;;;;;;7.13;6.40;;;2.30;99.90;;;;;;5053185;28;20190;-81
2024/01/07 03:08:31;;;;;;;7.63;6.83;;;2.30;99.90;;;;;;5051827;28;20229;-81
2024/01/07 03:10:58;;;;;;;7.57;6.77;;;2.30;99.90;;;;;;5053266;28;20228;-81
2024/01/07 03:13:24;;;;;;;8.27;6.77;;;2.40;99.90;;;;;;5056866;28;20201;-81
2024/01/07 03:15:52;;;;;;;8.37;6.90;;;2.50;99.90;;;;;;5053113;28;20194;-81
2024/01/07 03:18:19;;;;;;;7.43;6.63;;;2.50;99.90;;;;;;5053068;28;20205;-81
2024/01/07 03:20:46;;;;;;;7.67;6.80;;;2.50;99.90;;;;;;5059346;28;20543;-81
2024/01/07 03:23:13;;;;;;;7.77;6.70;;;2.40;99.90;;;;;;5045403;28;20667;-81
2024/01/07 03:25:39;;;;;;;7.53;6.40;;;2.50;99.90;;;;;;5053138;28;20226;-81
2024/01/07 03:28:06;;;;;;;7.43;6.27;;;2.50;99.90;;;;;;5055300;28;20202;-80
2024/01/07 03:30:33;;;;;;;7.63;6.83;;;2.50;99.90;;;;;;5051383;28;20208;-81
2024/01/07 03:33:01;;;;;;;7.70;6.90;;;2.40;99.90;;;;;;5052202;28;20200;-80
2024/01/07 03:35:28;;;;;;;7.20;6.50;;;2.30;99.90;;;;;;5046051;28;20208;-81
2024/01/07 03:37:55;;;;;;;7.07;6.30;;;2.30;99.90;;;;;;5053602;28;20206;-81
2024/01/07 03:40:22;;;;;;;7.60;6.80;;;2.40;99.90;;;;;;5054517;28;20209;-81
2024/01/07 03:42:49;;;;;;;7.63;6.83;;;2.50;99.90;;;;;;5059181;28;20198;-81
2024/01/07 03:45:15;;;;;;;7.40;6.57;;;2.50;99.90;;;;;;5055553;28;20294;-81
2024/01/07 03:47:41;;;;;;;7.33;6.37;;;2.40;99.90;;;;;;5053488;28;20198;-81
2024/01/07 03:50:10;;;;;;;7.07;6.30;;;2.40;99.90;;;;;;5053987;28;20194;-81
2024/01/07 03:52:36;;;;;;;7.63;6.17;;;2.50;99.90;;;;;;5056156;28;20190;-81
2024/01/07 03:55:04;;;;;;;6.40;5.73;;;2.50;99.90;;;;;;5055076;28;20209;-81
2024/01/07 03:57:31;;;;;;;6.93;6.23;;;2.50;99.90;;;;;;5051625;28;20650;-80
2024/01/07 03:59:57;;;;;;;6.40;5.80;;;2.50;99.90;;;;;;5055718;28;20202;-81
2024/01/07 04:02:24;;;;;;;7.13;6.23;;;2.50;99.90;;;;;;5055483;28;20224;-80
2024/01/07 04:04:51;;;;;;;6.23;5.60;;;2.50;99.90;;;;;;5052380;28;20230;-81
2024/01/07 04:07:19;;;;;;;6.30;5.70;;;2.60;99.90;;;;;;5054597;28;20205;-80
2024/01/07 04:09:45;;;;;;;6.83;6.20;;;2.60;99.90;;;;;;5059730;28;20198;-80
2024/01/07 04:12:12;;;;;;;7.03;6.13;;;2.70;99.90;;;;;;5051939;28;20193;-81
2024/01/07 04:14:39;;;;;;;6.60;5.87;;;2.60;99.90;;;;;;5053467;28;20202;-81
2024/01/07 04:17:08;;;;;;;7.77;6.30;;;2.60;99.90;;;;;;5049092;28;20219;-81
2024/01/07 04:19:36;;;;;;;6.50;5.70;;;2.60;99.90;;;;;;5049289;28;20591;-81
2024/01/07 04:22:04;;;;;;;7.43;6.33;;;2.50;99.90;;;;;;5049866;28;20198;-81
2024/01/07 04:24:32;;;;;;;5.73;5.13;;;2.50;99.90;;;;;;5061987;28;20223;-80
2024/01/07 04:26:58;;;;;;;6.73;6.03;;;2.50;99.90;;;;;;5056251;28;20213;-81
2024/01/07 04:29:25;;;;;;;6.83;5.93;;;2.50;99.90;;;;;;5055664;28;20192;-81
2024/01/07 04:31:52;;;;;;;6.40;5.80;;;2.50;99.90;;;;;;5057768;28;20554;-81
2024/01/07 04:34:19;;;;;;;6.40;5.80;;;2.50;99.90;;;;;;5054987;28;20202;-81
2024/01/07 04:36:45;;;;;;;7.33;6.40;;;2.50;99.90;;;;;;5052454;28;20205;-81
2024/01/07 04:39:12;;;;;;;6.70;6.00;;;2.50;99.90;;;;;;5050931;28;20212;-81
2024/01/07 04:41:40;;;;;;;7.03;5.80;;;2.50;99.90;;;;;;5057131;28;20208;-81
2024/01/07 04:44:07;;;;;;;7.00;6.07;;;2.50;99.90;;;;;;5052048;28;20198;-81
2024/01/07 04:46:35;;;;;;;6.97;6.23;;;2.50;99.90;;;;;;5050929;28;20225;-81
2024/01/07 04:49:01;;;;;;;6.27;5.67;;;2.50;99.90;;;;;;5054348;28;20612;-81
2024/01/07 04:51:28;;;;;;;6.70;6.00;;;2.50;99.90;;;;;;5055404;28;20198;-81
2024/01/07 04:53:54;;;;;;;6.50;5.90;;;2.50;99.90;;;;;;5055628;28;20198;-82
2024/01/07 04:56:21;;;;;;;7.13;6.43;;;2.40;99.90;;;;;;5054626;28;20230;-81
2024/01/07 04:58:49;;;;;;;7.27;6.10;;;2.40;99.90;;;;;;5048162;28;20197;-81
2024/01/07 05:01:16;;;;;;;6.93;6.23;;;2.50;99.90;;;;;;5051096;28;20549;-81
2024/01/07 05:03:43;;;;;;;6.57;5.97;;;2.50;99.90;;;;;;5057017;28;20198;-81
2024/01/07 05:06:10;;;;;;;6.53;5.80;;;2.60;99.90;;;;;;5053082;28;20225;-81
2024/01/07 05:08:37;;;;;;;6.07;5.47;;;2.70;99.90;;;;;;5053509;28;20197;-81
2024/01/07 05:11:04;;;;;;;7.70;6.20;;;2.70;99.90;;;;;;5048703;28;20190;-81
2024/01/07 05:13:32;;;;;;;6.93;6.23;;;2.70;99.90;;;;;;5048323;28;20673;-81
2024/01/07 05:16:00;;;;;;;6.77;6.07;;;2.70;99.90;;;;;;5052325;28;20209;-82
2024/01/07 05:18:26;;;;;;;6.47;5.80;;;2.50;99.90;;;;;;5051189;28;20208;-81
2024/01/07 05:20:53;;;;;;;6.73;6.07;;;2.50;99.90;;;;;;5050728;28;20205;-81
2024/01/07 05:23:20;;;;;;;6.70;6.00;;;2.50;99.90;;;;;;5052783;28;20208;-81
2024/01/07 05:25:47;;;;;;;6.40;5.80;;;2.50;99.90;;;;;;5049512;28;20221;-81
2024/01/07 05:28:14;;;;;;;6.60;5.90;;;2.50;99.90;;;;;;5053203;28;20202;-81
2024/01/07 05:30:44;;;;;;;7.07;6.30;;;2.50;99.90;;;;;;5049908;28;20194;-81
2024/01/07 05:33:12;;;;;;;7.00;6.30;;;2.50;99.90;;;;;;5058996;28;20193;-81
2024/01/07 05:35:39;;;;;;;7.63;6.87;;;2.40;99.90;;;;;;5052721;28;20202;-81
2024/01/07 05:38:06;;;;;;;7.57;6.77;;;2.30;99.90;;;;;;5056643;28;20848;-81
2024/01/07 05:40:33;;;;;;;7.77;6.97;;;2.30;99.90;;;;;;5049998;28;20205;-81
2024/01/07 05:42:59;;;;;;;7.07;6.40;;;2.30;99.90;;;;;;5049166;28;20198;-81
2024/01/07 05:45:26;;;;;;;7.17;6.47;;;2.30;99.90;;;;;;5047900;28;20771;-82
2024/01/07 05:47:53;;;;;;;7.00;6.30;;;2.30;99.90;;;;;;5052658;28;20209;-81
2024/01/07 05:50:21;;;;;;;7.93;6.40;;;2.40;99.90;;;;;;5056039;28;20206;-81
2024/01/07 05:52:48;;;;;;;6.63;6.00;;;2.50;99.90;;;;;;5053864;28;20205;-82
2024/01/07 05:55:14;;;;;;;7.33;6.63;;;2.50;99.90;;;;;;5056609;28;20914;-81
2024/01/07 05:57:41;;;;;;;7.13;6.43;;;2.50;99.90;;;;;;5059097;28;20320;-81
2024/01/07 06:00:10;;;;;;;7.30;6.60;;;2.40;99.90;;;;;;5056346;28;20201;-81
2024/01/07 06:02:39;;;;;;;6.90;6.20;;;2.40;99.90;;;;;;5051086;28;20260;-81
2024/01/07 06:05:06;;;;;;;7.53;6.23;;;2.50;99.90;;;;;;5054647;28;20229;-81
2024/01/07 06:07:34;;;;;;;8.10;6.80;;;2.60;99.90;;;;;;5049738;28;20204;-81
2024/01/07 06:10:02;;;;;;;6.93;6.23;;;2.70;99.90;;;;;;5057992;28;20193;-81
2024/01/07 06:12:28;;;;;;;7.17;6.47;;;2.80;99.90;;;;;;5058327;28;20250;-81
2024/01/07 06:14:55;;;;;;;9.60;6.57;;;2.70;99.90;;;;;;5054403;28;20202;-81
2024/01/07 06:17:22;;;;;;;7.33;6.57;;;2.80;99.90;;;;;;5061268;28;20194;-81
2024/01/07 06:19:49;;;;;;;7.63;6.43;;;2.60;99.90;;;;;;5057513;28;20194;-81
2024/01/07 06:22:16;;;;;;;7.70;6.90;;;2.60;99.90;;;;;;5051112;28;20217;-81
2024/01/07 06:24:44;;;;;;;6.97;6.27;;;2.50;99.90;;;;;;5050723;28;20225;-81
2024/01/07 06:27:10;;;;;;;7.60;6.57;;;2.50;99.90;;;;;;5053314;28;20651;-81
2024/01/07 06:29:37;;;;;;;8.07;7.03;;;2.50;99.90;;;;;;5060911;28;20205;-81
2024/01/07 06:32:04;;;;;;;7.23;6.53;;;2.50;99.90;;;;;;5057236;28;20205;-81
2024/01/07 06:34:33;;;;;;;8.93;7.77;;;2.40;99.90;;;;;;5055868;28;20558;-81
2024/01/07 06:37:00;;;;;;;7.13;6.43;;;2.40;99.90;;;;;;5054077;28;20296;-80
2024/01/07 06:39:27;;;;;;;7.03;6.27;;;2.40;99.90;;;;;;5060477;28;20206;-81
2024/01/07 06:41:55;;;;;;;7.83;6.87;;;2.30;99.90;;;;;;5066671;28;20255;-80
2024/01/07 06:44:22;;;;;;;7.37;6.63;;;2.50;99.90;;;;;;5058796;28;20209;-81
2024/01/07 06:46:49;;;;;;;7.47;6.37;;;2.50;99.90;;;;;;5057432;28;20275;-79
2024/01/07 06:49:16;;;;;;;8.70;6.87;;;2.30;99.90;;;;;;5056514;28;20594;-80
2024/01/07 06:51:42;;;;;;;7.20;6.50;;;2.30;99.90;;;;;;5057788;28;20196;-80
2024/01/07 06:54:09;;;;;;;7.87;7.03;;;2.30;99.90;;;;;;5054264;28;20637;-80
2024/01/07 06:56:36;;;;;;;7.87;6.70;;;2.30;99.90;;;;;;5049808;28;20198;-80
2024/01/07 06:59:04;;;;;;;8.73;7.40;;;2.50;99.90;;;;;;5056170;28;20197;-80
2024/01/07 07:01:31;;;;;;;7.93;6.30;;;2.50;99.90;;;;;;5055622;28;20198;-79
2024/01/07 07:03:57;;;;;;;8.07;6.07;;;2.30;99.90;;;;;;5057987;28;20699;-79
2024/01/07 07:06:25;;;;;;;7.20;6.13;;;2.30;99.90;;;;;;5053797;28;20225;-80
2024/01/07 07:08:51;;;;;;;7.43;6.23;;;2.50;99.90;;;;;;5057566;28;20198;-80
2024/01/07 07:11:24;;;;;;;6.47;5.70;;;2.40;99.90;;;;;;5052641;28;20197;-80
2024/01/07 07:13:51;;;;;;;8.00;5.90;;;2.30;99.90;;;;;;5056046;28;20232;-79
2024/01/07 07:16:19;;;;;;;6.80;5.90;;;2.20;99.90;;;;;;5054984;28;20233;-79
2024/01/07 07:18:46;;;;;;;7.67;5.80;;;2.20;99.90;;;;;;5054620;28;20205;-79
2024/01/07 07:21:13;;;;;;;7.23;5.87;;;2.20;99.90;;;;;;5061352;28;20208;-79
2024/01/07 07:23:39;;;;;;;7.97;6.53;;;2.20;99.90;;;;;;5054576;28;20206;-78
2024/01/07 07:26:06;;;;;;;6.93;5.53;;;2.10;99.90;;;;;;5057685;28;20228;-79
2024/01/07 07:28:34;;;;;;;9.03;6.20;;;2.10;99.90;;;;;;5055066;28;20198;-79
2024/01/07 07:31:01;;;;;;;6.37;5.70;;;2.20;99.90;;;;;;5052241;28;20859;-78
2024/01/07 07:33:29;;;;;;;7.63;6.27;;;2.20;99.90;;;;;;5053118;28;20206;-78
2024/01/07 07:35:56;;;;;;;7.67;6.27;;;2.10;99.90;;;;;;5053229;28;20202;-78
2024/01/07 07:38:23;;;;;;;7.70;6.30;;;2.10;99.90;;;;;;5050100;28;20210;-78
2024/01/07 07:40:52;;;;;;;8.13;5.93;;;2.20;99.90;;;;;;5052600;28;20230;-78
2024/01/07 07:43:19;;;;;;;7.37;6.37;;;2.20;99.90;;;;;;5052516;28;20285;-79
2024/01/07 07:45:46;;;;;;;6.83;5.83;;;2.10;99.90;;;;;;5052725;28;20582;-79
2024/01/07 07:48:13;;;;;;;8.63;6.23;;;2.10;99.90;;;;;;5060648;28;20236;-79
2024/01/07 07:50:41;;;;;;;6.50;5.67;;;2.10;99.90;;;;;;5056121;28;20585;-79
2024/01/07 07:53:07;;;;;;;7.63;5.97;;;2.20;99.90;;;;;;5048196;28;20202;-80
2024/01/07 07:55:35;;;;;;;7.87;6.00;;;2.30;99.90;;;;;;5051196;28;20281;-78
2024/01/07 07:58:01;;;;;;;6.80;5.77;;;2.20;99.90;;;;;;5050842;28;20201;-78
2024/01/07 08:00:29;;;;;;;7.63;6.00;;;2.30;99.90;;;;;;5052307;28;20215;-79
2024/01/07 08:02:55;;;;;;;6.40;5.50;;;2.20;99.90;;;;;;5053010;28;20198;-79
2024/01/07 08:05:22;;;;;;;7.87;6.07;;;2.20;99.90;;;;;;5049066;28;20217;-79
2024/01/07 08:07:50;;;;;;;7.50;6.03;;;2.10;99.90;;;;;;5054149;28;20202;-79
2024/01/07 08:10:17;;;;;;;7.03;6.17;;;2.20;99.90;;;;;;5052273;28;20574;-79
2024/01/07 08:12:44;;;;;;;9.07;6.40;;;2.10;99.90;;;;;;5049257;28;20190;-80
2024/01/07 08:15:11;;;;;;;9.00;7.07;;;2.10;99.90;;;;;;5048871;28;20208;-80
2024/01/07 08:17:38;;;;;;;8.73;6.77;;;2.10;99.90;;;;;;5050762;28;20200;-79
2024/01/07 08:20:06;;;;;;;9.23;6.73;;;2.00;99.90;;;;;;5055377;28;20548;-80
2024/01/07 08:22:33;;;;;;;9.93;6.33;;;2.00;99.90;;;;;;5053756;28;20200;-78
2024/01/07 08:25:01;;;;;;;8.20;6.50;;;2.00;99.90;;;;;;5051793;28;20277;-80
2024/01/07 08:27:29;;;;;;;7.70;6.30;;;2.10;99.90;;;;;;5052470;28;20228;-80
2024/01/07 08:29:55;;;;;;;9.00;7.30;;;2.20;99.90;;;;;;5059322;28;20197;-80
2024/01/07 08:32:22;;;;;;;9.03;7.20;;;2.10;99.90;;;;;;5053824;28;20197;-79
2024/01/07 08:34:51;;;;;;;7.47;6.00;;;2.20;99.90;;;;;;5055152;28;20284;-79
2024/01/07 08:37:21;;;;;;;9.23;7.10;;;2.10;99.90;;;;;;5058268;28;20531;-79
2024/01/07 08:39:47;;;;;;;8.00;6.17;;;2.10;99.90;;;;;;5051968;28;20279;-79
2024/01/07 08:42:15;;;;;;;8.87;6.50;;;2.30;99.90;;;;;;5055845;28;20202;-79
2024/01/07 08:44:43;;;;;;;9.63;6.37;;;2.30;99.90;;;;;;5056028;28;20198;-80
2024/01/07 08:47:09;;;;;;;8.67;6.70;;;2.30;99.90;;;;;;5053321;28;20229;-79
2024/01/07 08:49:38;;;;;;;8.03;6.53;;;2.30;99.90;;;;;;5055454;28;20204;-78
2024/01/07 08:52:05;;;;;;;8.83;6.30;;;2.30;99.90;;;;;;5054837;28;20203;-78
2024/01/07 08:54:33;;;;;;;8.00;6.30;;;2.30;99.90;;;;;;5053717;28;20190;-79
2024/01/07 08:57:03;;;;;;;7.73;6.37;;;2.10;99.90;;;;;;5052301;28;20260;-80
2024/01/07 08:59:33;;;;;;;8.50;6.97;;;2.10;99.90;;;;;;5053496;28;20251;-78
2024/01/07 09:02:00;;;;;;;9.27;7.03;;;2.10;99.90;;;;;;5053128;28;20198;-79
2024/01/07 09:04:27;;;;;;;10.40;6.73;;;2.10;99.90;;;;;;5050054;28;20217;-78
2024/01/07 09:06:54;;;;;;;8.27;6.87;;;2.20;99.90;;;;;;5054951;28;20222;-89
2024/01/07 09:09:20;;;;;;;9.13;6.53;;;2.20;99.90;;;;;;5046982;28;20240;-77
2024/01/07 09:11:47;;;;;;;9.10;7.13;;;2.10;99.90;;;;;;5047636;28;20204;-78
2024/01/07 09:14:14;;;;;;;9.67;7.27;;;2.10;99.90;;;;;;5047965;28;20202;-78
2024/01/07 09:16:42;;;;;;;8.70;6.87;;;2.10;99.90;;;;;;5049363;28;21174;-78
2024/01/07 09:19:09;;;;;;;9.53;7.00;;;2.10;99.90;;;;;;5050604;28;20202;-77
2024/01/07 09:21:36;;;;;;;10.57;7.00;;;2.20;99.90;;;;;;5051151;28;20200;-78
2024/01/07 09:24:02;;;;;;;8.07;6.83;;;2.10;99.90;;;;;;5057695;28;20189;-77
2024/01/07 09:26:29;;;;;;;10.03;6.73;;;2.10;99.90;;;;;;5054262;28;20652;-78
2024/01/07 09:28:56;;;;;;;9.47;7.40;;;2.10;99.90;;;;;;5048583;28;20214;-77
2024/01/07 09:31:23;;;;;;;9.33;7.50;;;2.10;99.90;;;;;;5056458;28;20252;-77
2024/01/07 09:33:51;;;;;;;10.90;7.70;;;2.10;99.90;;;;;;5051375;28;20201;-77
2024/01/07 09:36:17;;;;;;;10.73;7.97;;;2.20;99.90;;;;;;5052882;28;20273;-77
2024/01/07 09:38:44;;;;;;;10.33;7.33;;;2.20;99.90;;;;;;5059169;28;20185;-77
2024/01/07 09:41:11;;;;;;;9.70;7.20;;;2.20;99.90;;;;;;5056047;28;20657;-77
2024/01/07 09:43:38;;;;;;;9.57;7.57;;;2.20;99.90;;;;;;5065989;28;20201;-77
2024/01/07 09:46:05;;;;;;;9.70;7.47;;;2.20;99.90;;;;;;5063043;28;20216;-77
2024/01/07 09:48:32;;;;;;;10.77;8.20;;;2.30;99.90;;;;;;5054282;28;20285;-78
2024/01/07 09:51:02;;;;;;;12.07;8.80;;;2.20;99.90;;;;;;5055666;28;20729;-77
2024/01/07 09:53:32;;;;;;;9.70;7.90;;;2.10;99.90;;;;;;5055843;28;20634;-77
2024/01/07 09:56:07;;;;;;;11.90;8.50;;;2.20;99.90;;;;;;5051616;28;20206;-79
2024/01/07 09:58:34;;;;;;;9.10;7.27;;;2.10;99.90;;;;;;5049942;28;20212;-79
2024/01/07 10:01:01;;;;;;;9.47;8.00;;;2.20;99.90;;;;;;5045877;28;20199;-80
2024/01/07 10:03:28;;;;;;;10.20;8.13;;;2.20;99.90;;;;;;5054245;28;21440;-79
2024/01/07 10:05:55;;;;;;;11.33;8.30;;;2.20;99.90;;;;;;5048966;28;20217;-80
2024/01/07 10:08:23;;;;;;;11.53;8.80;;;2.30;99.90;;;;;;5048430;28;20209;-79
2024/01/07 10:10:50;;;;;;;10.63;8.23;;;2.30;99.90;;;;;;5049543;28;20674;-79
2024/01/07 10:13:16;;;;;;;12.17;8.70;;;2.20;99.90;;;;;;5048683;28;20571;-79
2024/01/07 10:15:43;;;;;;;11.97;9.33;;;2.30;99.90;;;;;;5053287;28;20216;-79
2024/01/07 10:18:10;;;;;;;10.87;8.23;;;2.30;99.90;;;;;;5049260;28;20657;-80
2024/01/07 10:20:37;;;;;;;12.63;8.90;;;2.40;99.90;;;;;;5058805;28;20576;-79
2024/01/07 10:23:07;;;;;;;11.13;8.40;;;2.40;99.90;;;;;;5052648;28;20205;-79
2024/01/07 10:25:36;;;;;;;10.70;8.17;;;2.40;99.90;;;;;;5052784;28;20212;-79
2024/01/07 10:28:04;;;;;;;10.13;8.00;;;2.50;99.90;;;;;;5051332;28;20292;-79
2024/01/07 10:30:31;;;;;;;11.20;9.47;;;2.50;99.90;;;;;;5047457;28;20204;-80
2024/01/07 10:32:58;;;;;;;11.07;7.97;;;2.60;99.90;;;;;;5052386;28;20244;-79
2024/01/07 10:35:30;;;;;;;10.33;8.00;;;2.50;99.90;;;;;;5050309;28;20194;-80
2024/01/07 10:37:57;;;;;;;11.47;8.50;;;2.60;99.90;;;;;;5053161;28;20209;-79
2024/01/07 10:40:26;;;;;;;9.50;7.50;;;2.50;99.90;;;;;;5053217;28;20198;-79
2024/01/07 10:42:55;;;;;;;10.53;7.50;;;2.40;99.90;;;;;;5050597;28;20231;-80
2024/01/07 10:45:22;;;;;;;10.87;8.10;;;2.50;99.90;;;;;;5047139;28;20198;-79
2024/01/07 10:47:51;;;;;;;9.13;7.43;;;2.50;99.90;;;;;;5049520;28;20213;-79
2024/01/07 10:50:18;;;;;;;11.03;8.10;;;2.60;99.90;;;;;;5049558;28;20202;-79
2024/01/07 10:52:50;;;;;;;9.77;7.47;;;2.70;99.90;;;;;;5049180;28;20194;-79
2024/01/07 10:55:20;;;;;;;10.47;7.87;;;2.60;99.90;;;;;;5049981;28;20201;-79
2024/01/07 10:57:49;;;;;;;10.80;8.47;;;2.60;99.90;;;;;;5048704;28;20206;-79
2024/01/07 11:00:19;;;;;;;10.77;7.83;;;2.60;99.90;;;;;;5049436;28;20276;-79
2024/01/07 11:02:57;;;;;;;11.93;8.37;;;2.60;99.90;;;;;;5052043;28;20213;-78
2024/01/07 11:05:31;;;;;;;12.80;8.57;;;2.50;99.90;;;;;;5048544;28;20219;-80
2024/01/07 11:08:04;;;;;;;12.87;8.63;;;2.50;99.90;;;;;;5053317;28;20670;-79
2024/01/07 11:10:38;;;;;;;10.57;8.23;;;2.50;99.90;;;;;;5051039;28;20193;-79
2024/01/07 11:13:05;;;;;;;11.03;8.20;;;2.50;99.90;;;;;;5055101;28;20194;-81
2024/01/07 11:15:54;;;;;;;10.77;8.47;;;2.50;99.90;;;;;;5050483;28;20264;-79
2024/01/07 11:18:25;;;;;;;10.93;8.20;;;2.30;99.90;;;;;;5052600;28;20740;-77
2024/01/07 11:20:54;;;;;;;8.97;6.90;;;2.20;99.90;;;;;;5048243;28;20229;-81
2024/01/07 11:23:32;;;;;;;9.87;7.40;;;2.20;99.90;;;;;;5054090;28;20221;-78
2024/01/07 11:25:59;;;;;;;10.33;7.77;;;2.30;99.90;;;;;;5057363;28;20220;-77
2024/01/07 11:28:50;;;;;;;11.70;8.10;;;2.20;99.90;;;;;;5054901;28;20197;-76
2024/01/07 11:31:19;;;;;;;10.27;7.53;;;2.20;99.90;;;;;;5052013;28;20201;-77
2024/01/07 11:33:47;;;;;;;10.13;7.73;;;2.10;99.90;;;;;;5052912;28;20197;-77
2024/01/07 11:36:14;;;;;;;8.90;7.50;;;2.00;99.90;;;;;;5049003;28;20285;-76
2024/01/07 11:38:45;;;;;;;10.67;6.60;;;2.10;99.90;;;;;;5049940;28;20553;-77
2024/01/07 11:41:14;;;;;;;11.00;7.40;;;2.10;99.90;;;;;;5052346;28;20232;-78
2024/01/07 11:43:54;;;;;;;9.50;6.77;;;2.20;99.90;;;;;;5037324;28;20204;-77
2024/01/07 11:46:22;;;;;;;10.33;7.30;;;2.10;99.90;;;;;;5054507;28;20217;-77
2024/01/07 11:48:49;;;;;;;10.07;6.97;;;2.10;99.90;;;;;;5048397;28;20202;-79
2024/01/07 11:51:17;;;;;;;9.53;7.10;;;2.10;99.90;;;;;;5052420;28;20194;-80
2024/01/07 11:53:47;;;;;;;10.47;7.53;;;2.10;99.90;;;;;;5054776;28;20200;-83
2024/01/07 11:56:13;;;;;;;9.33;6.97;;;2.00;99.90;;;;;;5052129;28;20210;-82
2024/01/07 11:58:41;;;;;;;9.40;6.87;;;1.90;99.90;;;;;;5057626;28;20198;-79
2024/01/07 12:01:08;;;;;;;9.60;7.50;;;2.00;99.90;;;;;;5053062;28;20290;-81
2024/01/07 12:03:36;;;;;;;9.17;7.03;;;2.10;99.90;;;;;;5056973;28;20220;-81
2024/01/07 12:06:03;;;;;;;10.53;7.57;;;2.10;99.90;;;;;;5054049;28;20200;-80
2024/01/07 12:08:30;;;;;;;8.83;7.30;;;2.20;99.90;;;;;;5059049;28;20704;-78
2024/01/07 12:10:57;;;;;;;10.17;7.63;;;2.30;99.90;;;;;;5049937;28;20200;-81
2024/01/07 12:13:25;;;;;;;11.83;7.83;;;2.30;99.90;;;;;;5064217;28;20637;-79
2024/01/07 12:15:52;;;;;;;10.00;7.60;;;2.30;99.90;;;;;;5053908;28;20200;-80
2024/01/07 12:18:18;;;;;;;9.07;6.63;;;2.30;99.90;;;;;;5052719;28;20228;-79
2024/01/07 12:20:57;;;;;;;8.90;7.27;;;2.30;99.90;;;;;;5057333;28;20217;-80
2024/01/07 12:23:25;;;;;;;18.03;12.20;;;2.20;99.90;;;;;;5054439;28;20193;-80
2024/01/07 12:26:08;;;;;;;8.73;7.30;;;2.10;99.90;;;;;;5056767;28;20197;-78
2024/01/07 12:28:35;;;;;;;10.40;7.97;;;2.10;99.90;;;;;;5050383;28;20230;-76
2024/01/07 12:31:02;;;;;;;10.60;7.37;;;2.00;99.90;;;;;;5050401;28;20208;-80
2024/01/07 12:33:31;;;;;;;9.03;6.70;;;1.80;99.90;;;;;;5053020;28;20276;-78
2024/01/07 12:35:59;;;;;;;7.80;6.67;;;2.00;99.90;;;;;;5049798;28;20198;-78
2024/01/07 12:38:26;;;;;;;9.23;7.00;;;2.00;99.90;;;;;;5056553;28;20574;-78
2024/01/07 12:40:53;;;;;;;10.27;6.83;;;2.00;99.90;;;;;;5052021;28;20685;-77
2024/01/07 12:43:20;;;;;;;8.37;7.20;;;2.10;99.90;;;;;;5051931;28;20193;-79
2024/01/07 12:45:47;;;;;;;12.40;7.50;;;2.10;99.90;;;;;;5054784;28;20197;-78
2024/01/07 12:48:14;;;;;;;9.80;7.30;;;2.10;99.90;;;;;;5048395;28;20226;-78
2024/01/07 12:50:40;;;;;;;8.63;6.93;;;2.10;99.90;;;;;;5054976;28;20194;-78
2024/01/07 12:53:09;;;;;;;9.33;7.40;;;2.00;99.90;;;;;;5058498;28;20198;-78
2024/01/07 12:55:36;;;;;;;9.40;7.63;;;1.90;99.90;;;;;;5056069;28;20198;-77